createdAt,value
2022-11-09T00:00:23.602Z,100433.48
2022-11-09T00:05:29.041Z,100432.14
2022-11-09T00:10:35.268Z,100435.44
2022-11-09T00:15:40.740Z,100432.64
2022-11-09T00:20:48.298Z,100434.70
2022-11-09T00:25:53.273Z,100432.14
2022-11-09T00:31:10.854Z,100427.63
2022-11-09T00:36:16.399Z,100429.10
2022-11-09T00:41:22.430Z,100431.28
2022-11-09T00:46:28.352Z,100440.82
2022-11-09T00:51:34.333Z,100436.92
2022-11-09T00:56:40.146Z,100430.55
2022-11-09T01:01:47.413Z,100428.72
2022-11-09T01:06:52.917Z,100430.31
2022-11-09T01:11:58.421Z,100434.46
2022-11-09T01:17:04.179Z,100426.02
2022-11-09T01:22:09.646Z,100429.69
2022-11-09T01:27:15.379Z,100433.48
2022-11-09T01:32:20.926Z,100429.34
2022-11-09T01:37:26.679Z,100420.89
2022-11-09T01:42:33.580Z,100424.67
2022-11-09T01:47:41.287Z,100413.56
2022-11-09T01:52:50.041Z,100410.64
2022-11-09T01:58:04.275Z,100414.30
2022-11-09T02:03:12.696Z,100412.22
2022-11-09T02:08:21.571Z,100409.78
2022-11-09T02:13:30.163Z,100408.67
2022-11-09T02:18:37.568Z,100409.78
2022-11-09T02:23:43.123Z,100410.27
2022-11-09T02:28:49.296Z,100392.53
2022-11-09T02:33:57.252Z,100382.02
2022-11-09T02:39:03.318Z,100380.53
2022-11-09T02:44:09.226Z,100368.79
2022-11-09T02:49:14.687Z,100362.22
2022-11-09T02:54:20.208Z,100366.35
2022-11-09T02:59:26.342Z,100371.12
2022-11-09T03:04:32.153Z,100380.17
2022-11-09T03:09:38.273Z,100374.80
2022-11-09T03:14:44.644Z,100361.47
2022-11-09T03:19:50.279Z,100364.16
2022-11-09T03:24:56.152Z,100366.72
2022-11-09T03:30:01.988Z,100377.98
2022-11-09T03:35:08.907Z,100380.05
2022-11-09T03:40:15.218Z,100386.17
2022-11-09T03:45:22.024Z,100390.08
2022-11-09T03:50:32.154Z,100386.91
2022-11-09T03:55:38.382Z,100381.77
2022-11-09T04:00:44.018Z,100363.30
2022-11-09T04:05:49.471Z,100360.97
2022-11-09T04:10:54.869Z,100355.82
2022-11-09T04:16:00.547Z,100364.64
2022-11-09T04:21:06.012Z,100371.72
2022-11-09T04:26:11.673Z,100368.61
2022-11-09T04:31:17.057Z,100375.45
2022-11-09T04:36:22.511Z,100383.52
2022-11-09T04:41:29.077Z,100376.30
2022-11-09T04:46:34.467Z,100362.61
2022-11-09T04:51:39.854Z,100378.63
2022-11-09T04:56:46.177Z,100364.58
2022-11-09T05:01:51.710Z,100362.86
2022-11-09T05:06:57.147Z,100361.89
2022-11-09T05:12:02.635Z,100368.86
2022-11-09T05:17:08.951Z,100382.59
2022-11-09T05:22:32.012Z,100377.91
2022-11-09T05:27:39.054Z,100365.00
2022-11-09T05:32:44.478Z,100379.02
2022-11-09T05:37:50.873Z,100372.20
2022-11-09T05:42:56.868Z,100353.88
2022-11-09T05:48:04.722Z,100365.13
2022-11-09T05:53:11.852Z,100366.48
2022-11-09T05:58:18.327Z,100373.31
2022-11-09T06:03:23.761Z,100378.07
2022-11-09T06:08:29.435Z,100377.22
2022-11-09T06:13:35.562Z,100383.47
2022-11-09T06:18:41.000Z,100381.64
2022-11-09T06:23:46.481Z,100378.31
2022-11-09T06:28:51.961Z,100382.84
2022-11-09T06:33:57.514Z,100393.37
2022-11-09T06:39:02.919Z,100394.00
2022-11-09T06:44:08.438Z,100391.67
2022-11-09T06:49:13.827Z,100401.20
2022-11-09T06:54:19.230Z,100412.69
2022-11-09T06:59:24.699Z,100411.59
2022-11-09T07:04:30.574Z,100405.97
2022-11-09T07:09:36.043Z,100414.67
2022-11-09T07:14:41.423Z,100401.34
2022-11-09T07:19:47.544Z,100417.21
2022-11-09T07:24:52.933Z,100415.65
2022-11-09T07:29:58.336Z,100417.23
2022-11-09T07:35:04.572Z,100407.21
2022-11-09T07:40:11.220Z,100408.66
2022-11-09T07:45:16.745Z,100409.52
2022-11-09T07:50:22.141Z,100408.67
2022-11-09T07:55:28.949Z,100407.33
2022-11-09T08:00:37.224Z,100417.11
2022-11-09T08:05:42.830Z,100422.86
2022-11-09T08:10:49.913Z,100423.09
2022-11-09T08:15:55.393Z,100409.05
2022-11-09T08:21:03.489Z,100415.41
2022-11-09T08:26:09.168Z,100425.94
2022-11-09T08:31:14.716Z,100417.24
2022-11-09T08:36:20.352Z,100416.02
2022-11-09T08:41:25.837Z,100406.11
2022-11-09T08:46:31.460Z,100415.39
2022-11-09T08:51:36.849Z,100418.11
2022-11-09T08:56:42.392Z,100432.17
2022-11-09T09:01:47.868Z,100437.91
2022-11-09T09:06:54.285Z,100440.14
2022-11-09T09:12:00.274Z,100437.80
2022-11-09T09:17:06.127Z,100446.98
2022-11-09T09:22:11.516Z,100432.30
2022-11-09T09:27:16.966Z,100431.91
2022-11-09T09:32:22.368Z,100420.16
2022-11-09T09:37:27.761Z,100441.93
2022-11-09T09:42:38.876Z,100457.97
2022-11-09T09:48:08.297Z,100464.33
2022-11-09T09:53:25.151Z,100481.72
2022-11-09T09:58:29.317Z,100476.72
2022-11-09T10:03:34.703Z,100471.45
2022-11-09T10:08:52.157Z,100488.09
2022-11-09T10:14:03.605Z,100524.95
2022-11-09T10:19:30.179Z,100539.73
2022-11-09T10:24:58.704Z,100533.86
2022-11-09T10:29:51.398Z,100504.23
2022-11-09T10:34:59.912Z,100494.70
2022-11-09T10:40:10.928Z,100479.27
2022-11-09T10:45:37.675Z,100467.55
2022-11-09T10:51:01.092Z,100485.27
2022-11-09T10:56:25.215Z,100502.68
2022-11-09T11:01:50.046Z,100507.32
2022-11-09T11:07:22.918Z,100508.18
2022-11-09T11:12:49.247Z,100475.97
2022-11-09T11:18:23.141Z,100503.66
2022-11-09T11:23:48.133Z,100480.28
2022-11-09T11:29:37.689Z,100481.86
2022-11-09T11:35:02.024Z,100481.85
2022-11-09T11:40:37.845Z,100471.81
2022-11-09T11:46:13.550Z,100486.01
2022-11-09T11:51:48.861Z,100481.72
2022-11-09T11:57:24.033Z,100472.66
2022-11-09T12:03:09.411Z,100470.83
2022-11-09T12:08:49.566Z,100475.92
2022-11-09T12:14:30.619Z,100466.38
2022-11-09T12:19:56.801Z,100460.34
2022-11-09T12:25:56.601Z,100468.92
2022-11-09T12:31:47.692Z,100459.69
2022-11-09T12:37:17.046Z,100442.27
2022-11-09T12:42:46.747Z,100440.56
2022-11-09T12:48:24.794Z,100450.87
2022-11-09T12:53:48.116Z,100449.39
2022-11-09T12:59:29.671Z,100446.42
2022-11-09T13:05:01.703Z,100432.28
2022-11-09T13:10:37.595Z,100431.77
2022-11-09T13:16:22.322Z,100440.69
2022-11-09T13:21:45.591Z,100428.27
2022-11-09T13:27:11.948Z,100423.23
2022-11-09T13:32:35.331Z,100427.21
2022-11-09T13:37:59.169Z,100428.75
2022-11-09T13:43:28.329Z,100440.96
2022-11-09T13:48:54.237Z,100445.28
2022-11-09T13:54:32.802Z,100460.17
2022-11-09T13:59:58.751Z,100468.80
2022-11-09T14:05:34.689Z,100460.18
2022-11-09T14:11:33.363Z,100463.89
2022-11-09T14:17:22.502Z,100476.14
2022-11-09T14:22:45.951Z,100470.41
2022-11-09T14:28:27.468Z,100470.59
2022-11-09T14:34:01.995Z,100488.74
2022-11-09T14:39:35.443Z,100482.81
2022-11-09T14:44:58.955Z,100485.28
2022-11-09T14:50:25.895Z,100476.84
2022-11-09T14:55:52.053Z,100484.50
2022-11-09T15:01:24.304Z,100493.58
2022-11-09T15:06:51.407Z,100499.03
2022-11-09T15:12:16.868Z,100487.64
2022-11-09T15:17:42.028Z,100488.55
2022-11-09T15:23:23.733Z,100494.06
2022-11-09T15:28:49.455Z,100500.84
2022-11-09T15:34:18.931Z,100499.12
2022-11-09T15:39:42.492Z,100497.44
2022-11-09T15:45:06.548Z,100504.00
2022-11-09T15:50:30.197Z,100507.67
2022-11-09T15:55:53.651Z,100506.22
2022-11-09T16:01:17.721Z,100432.16
2022-11-09T16:06:46.325Z,100515.98
2022-11-09T16:12:11.474Z,100516.01
2022-11-09T16:17:34.995Z,100528.24
2022-11-09T16:22:58.674Z,100518.31
2022-11-09T16:28:24.029Z,100535.81
2022-11-09T16:33:47.704Z,100532.78
2022-11-09T16:39:13.570Z,100531.92
2022-11-09T16:44:42.520Z,100524.83
2022-11-09T16:50:06.521Z,100530.19
2022-11-09T16:55:30.070Z,100527.86
2022-11-09T17:01:10.587Z,100526.38
2022-11-09T17:06:19.090Z,100542.28
2022-11-09T17:11:43.018Z,100541.63
2022-11-09T17:17:06.597Z,100556.33
2022-11-09T17:22:31.215Z,100566.72
2022-11-09T17:27:54.536Z,100569.75
2022-11-09T17:33:18.309Z,100566.31
2022-11-09T17:38:42.404Z,100560.68
2022-11-09T17:44:06.116Z,100567.41
2022-11-09T17:49:29.393Z,100573.76
2022-11-09T17:54:53.037Z,100574.61
2022-11-09T18:00:17.600Z,100569.98
2022-11-09T18:05:42.927Z,100569.61
2022-11-09T18:11:06.190Z,100573.91
2022-11-09T18:16:29.242Z,100556.53
2022-11-09T18:21:52.390Z,100572.07
2022-11-09T18:27:15.631Z,100563.52
2022-11-09T18:32:39.354Z,100568.89
2022-11-09T18:38:02.902Z,100560.42
2022-11-09T18:43:26.450Z,100558.84
2022-11-09T18:48:54.609Z,100543.30
2022-11-09T18:54:18.128Z,100544.44
2022-11-09T18:59:42.662Z,100558.43
2022-11-09T19:05:08.379Z,100573.18
2022-11-09T19:10:31.943Z,100591.16
2022-11-09T19:15:58.417Z,100598.00
2022-11-09T19:21:41.321Z,100598.95
2022-11-09T19:27:04.783Z,100590.98
2022-11-09T19:32:28.355Z,100584.23
2022-11-09T19:37:52.056Z,100589.95
2022-11-09T19:43:15.607Z,100607.16
2022-11-09T19:48:40.738Z,100616.36
2022-11-09T19:54:06.083Z,100626.59
2022-11-09T19:59:29.722Z,100630.73
2022-11-09T20:04:54.600Z,100631.59
2022-11-09T20:10:18.361Z,100636.78
2022-11-09T20:15:41.888Z,100629.68
2022-11-09T20:21:09.871Z,100627.66
2022-11-09T20:26:33.642Z,100629.87
2022-11-09T20:31:56.786Z,100631.36
2022-11-09T20:37:20.501Z,100634.39
2022-11-09T20:42:43.792Z,100639.28
2022-11-09T20:48:19.319Z,100644.47
2022-11-09T20:53:32.844Z,100645.70
2022-11-09T20:58:56.439Z,100652.38
2022-11-09T21:04:20.155Z,100650.27
2022-11-09T21:09:43.656Z,100660.34
2022-11-09T21:15:07.760Z,100663.92
2022-11-09T21:20:31.002Z,100676.12
2022-11-09T21:26:13.947Z,100665.91
2022-11-09T21:31:37.185Z,100676.09
2022-11-09T21:37:00.537Z,100683.66
2022-11-09T21:42:23.944Z,100686.25
2022-11-09T21:47:47.352Z,100680.87
2022-11-09T21:53:10.944Z,100687.59
2022-11-09T21:58:34.863Z,100702.30
2022-11-09T22:03:58.764Z,100699.24
2022-11-09T22:09:22.058Z,100695.21
2022-11-09T22:15:03.604Z,100700.28
2022-11-09T22:20:45.004Z,100699.52
2022-11-09T22:26:09.187Z,100707.52
2022-11-09T22:31:32.816Z,100706.97
2022-11-09T22:36:56.538Z,100713.95
2022-11-09T22:42:19.883Z,100709.45
2022-11-09T22:47:43.336Z,100719.33
2022-11-09T22:53:06.541Z,100724.15
2022-11-09T22:58:30.802Z,100727.11
2022-11-09T23:03:54.380Z,100733.78
2022-11-09T23:09:18.020Z,100744.53
2022-11-09T23:14:59.251Z,100740.84
2022-11-09T23:20:23.506Z,100738.16
2022-11-09T23:25:57.880Z,100744.53
2022-11-09T23:31:25.938Z,100753.85
2022-11-09T23:36:49.341Z,100760.39
2022-11-09T23:42:12.655Z,100762.11
2022-11-09T23:47:36.184Z,100751.94
2022-11-09T23:53:01.256Z,100775.25
2022-11-09T23:58:24.775Z,100781.59
